Time;durP1;ratioP1;P1;durP2;ratioP2;P2;SDS_P1;SDS_P2;PMS_P1;PMS_P2;Temp;Humidity;BMP_temperature;BMP_pressure;BME280_temperature;BME280_humidity;BME280_pressure;Samples;Min_cycle;Max_cycle;Signal;HPM_P1;HPM_P2
2022/04/08 00:02:06;;;;;;;2.63;1.65;;;;;;;;;;5084357;28;20237;-86
2022/04/08 00:04:33;;;;;;;5.25;1.60;;;8.80;91.60;;;;;;5067772;28;20290;-86
2022/04/08 00:07:01;;;;;;;4.45;1.13;;;;;;;;;;5067862;28;20287;-85
2022/04/08 00:09:29;;;;;;;4.30;2.45;;;8.40;92.20;;;;;;5068346;28;20238;-86
2022/04/08 00:11:57;;;;;;;19.67;7.47;;;;;;;;;;5068602;28;20259;-86
2022/04/08 00:14:26;;;;;;;4.80;1.90;;;;;;;;;;5067462;28;20202;-86
2022/04/08 00:16:54;;;;;;;1.77;1.27;;;8.30;90.20;;;;;;5067667;28;20205;-86
2022/04/08 00:19:21;;;;;;;2.65;1.50;;;8.20;99.90;;;;;;5067965;28;20265;-86
2022/04/08 00:21:50;;;;;;;3.53;1.23;;;;;;;;;;5067733;28;20205;-87
2022/04/08 00:24:19;;;;;;;3.75;1.15;;;;;;;;;;5068041;28;20201;-86
2022/04/08 00:26:47;;;;;;;2.28;1.30;;;8.20;90.50;;;;;;5067738;28;20259;-87
2022/04/08 00:29:15;;;;;;;7.78;1.67;;;8.20;91.00;;;;;;5068197;28;20219;-86
2022/04/08 00:31:43;;;;;;;8.25;1.88;;;;;;;;;;5067703;28;20209;-86
2022/04/08 00:34:12;;;;;;;5.90;1.45;;;;;;;;;;5067957;28;20271;-86
2022/04/08 00:36:40;;;;;;;1.63;1.25;;;8.20;99.90;;;;;;5067104;28;20227;-86
2022/04/08 00:39:08;;;;;;;1.75;1.42;;;8.00;98.60;;;;;;5068316;28;20289;-86
2022/04/08 00:41:34;;;;;;;5.18;1.67;;;7.70;99.90;;;;;;5065016;28;20199;-87
2022/04/08 00:44:02;;;;;;;1.40;1.30;;;;;;;;;;5068087;28;20200;-87
2022/04/08 00:46:30;;;;;;;10.23;1.95;;;8.30;88.50;;;;;;5067099;28;20197;-86
2022/04/08 00:48:56;;;;;;;2.50;1.42;;;8.40;99.90;;;;;;5067890;28;20596;-87
2022/04/08 00:51:25;;;;;;;4.20;0.88;;;8.80;99.90;;;;;;5067534;28;20213;-87
2022/04/08 00:53:53;;;;;;;3.15;1.45;;;8.40;96.30;;;;;;5067857;28;20218;-87
2022/04/08 00:56:21;;;;;;;4.40;1.70;;;8.20;89.20;;;;;;5067553;28;20205;-86
2022/04/08 00:58:48;;;;;;;2.17;1.40;;;8.20;89.20;;;;;;5067514;28;20966;-86
2022/04/08 01:01:15;;;;;;;3.33;1.40;;;8.10;95.70;;;;;;5067913;28;20239;-87
2022/04/08 01:03:43;;;;;;;2.15;1.52;;;8.20;99.90;;;;;;5067546;28;20258;-86
2022/04/08 01:06:10;;;;;;;3.35;1.95;;;8.40;99.90;;;;;;5067198;28;20223;-87
2022/04/08 01:08:39;;;;;;;2.50;1.25;;;8.00;99.30;;;;;;5067453;28;20224;-87
2022/04/08 01:11:07;;;;;;;5.32;1.38;;;8.00;99.90;;;;;;5067384;28;20705;-87
2022/04/08 01:13:35;;;;;;;4.15;1.77;;;8.10;99.90;;;;;;5067586;28;20201;-86
2022/04/08 01:16:06;;;;;;;2.05;0.80;;;8.20;88.70;;;;;;5067265;28;20212;-86
2022/04/08 01:18:33;;;;;;;2.95;1.17;;;8.10;98.30;;;;;;5067886;28;20204;-87
2022/04/08 01:21:03;;;;;;;2.95;2.00;;;8.00;99.80;;;;;;5067672;28;20827;-86
2022/04/08 01:23:34;;;;;;;2.17;1.65;;;8.00;95.40;;;;;;5067446;28;20209;-87
2022/04/08 01:26:05;;;;;;;4.63;1.70;;;8.00;95.90;;;;;;5069462;28;20207;-88
2022/04/08 01:28:32;;;;;;;4.80;1.52;;;8.10;95.90;;;;;;5071575;28;20323;-86
2022/04/08 01:31:00;;;;;;;5.88;1.10;;;8.00;95.80;;;;;;5071181;28;20196;-88
2022/04/08 01:33:27;;;;;;;5.93;1.05;;;;;;;;;;5071656;28;20209;-87
2022/04/08 01:35:54;;;;;;;9.10;1.80;;;7.90;98.90;;;;;;5071165;28;20984;-86
2022/04/08 01:38:21;;;;;;;2.60;1.75;;;7.90;86.90;;;;;;5070738;28;20542;-87
2022/04/08 01:40:48;;;;;;;3.00;1.65;;;7.40;99.10;;;;;;5070616;28;20200;-87
2022/04/08 01:43:17;;;;;;;1.55;0.80;;;7.90;87.60;;;;;;5071545;28;20546;-87
2022/04/08 01:45:44;;;;;;;1.77;0.80;;;7.80;96.10;;;;;;5070792;28;20201;-86
2022/04/08 01:48:11;;;;;;;5.00;1.13;;;7.90;99.70;;;;;;5070831;28;20282;-87
2022/04/08 01:50:38;;;;;;;4.18;1.27;;;7.90;87.30;;;;;;5070738;28;20240;-87
2022/04/08 01:53:05;;;;;;;3.45;1.02;;;8.00;94.90;;;;;;5071134;28;20251;-87
2022/04/08 01:55:32;;;;;;;2.60;1.25;;;7.90;95.50;;;;;;5070931;28;20213;-87
2022/04/08 01:57:59;;;;;;;2.65;1.15;;;7.70;95.40;;;;;;5071381;28;20196;-87
2022/04/08 02:00:28;;;;;;;4.22;1.35;;;7.90;87.10;;;;;;5070430;28;20253;-87
2022/04/08 02:02:55;;;;;;;1.75;1.10;;;8.00;98.10;;;;;;5070748;28;20211;-88
2022/04/08 02:05:22;;;;;;;1.40;1.30;;;;;;;;;;5070288;28;20856;-87
2022/04/08 02:07:49;;;;;;;1.45;1.30;;;;;;;;;;5071141;28;20204;-87
2022/04/08 02:10:16;;;;;;;1.58;1.08;;;;;;;;;;5070677;28;20225;-87
2022/04/08 02:12:43;;;;;;;1.50;1.38;;;7.70;97.80;;;;;;5073070;28;20680;-86
2022/04/08 02:15:11;;;;;;;2.65;1.20;;;7.70;84.70;;;;;;5074217;28;20231;-86
2022/04/08 02:17:39;;;;;;;1.30;1.10;;;7.70;84.00;;;;;;5071292;28;20303;-86
2022/04/08 02:20:08;;;;;;;1.30;1.10;;;7.70;84.40;;;;;;5070361;28;20211;-87
2022/04/08 02:22:35;;;;;;;1.77;1.20;;;7.70;88.30;;;;;;5070243;28;20215;-87
2022/04/08 02:25:02;;;;;;;4.15;1.33;;;7.20;96.50;;;;;;5070371;28;20211;-87
2022/04/08 02:27:30;;;;;;;2.72;1.10;;;7.70;95.30;;;;;;5070074;28;20225;-87
2022/04/08 02:29:58;;;;;;;1.45;1.25;;;7.20;90.00;;;;;;5070087;28;20691;-87
2022/04/08 02:32:25;;;;;;;1.98;1.00;;;7.40;96.30;;;;;;5068863;28;20252;-87
2022/04/08 02:34:54;;;;;;;1.40;1.25;;;7.50;99.20;;;;;;5070197;28;20325;-87
2022/04/08 02:37:21;;;;;;;3.45;1.27;;;7.50;99.00;;;;;;5068992;28;20204;-88
2022/04/08 02:39:48;;;;;;;5.22;1.20;;;7.40;99.10;;;;;;5070103;28;20816;-87
2022/04/08 02:42:15;;;;;;;1.52;1.15;;;7.30;99.70;;;;;;5069449;28;20267;-86
2022/04/08 02:44:42;;;;;;;1.85;0.90;;;;;;;;;;5069443;28;20292;-87
2022/04/08 02:47:10;;;;;;;1.42;0.93;;;;;;;;;;5069757;28;20666;-87
2022/04/08 02:49:36;;;;;;;2.90;1.35;;;7.40;96.90;;;;;;5069869;28;20249;-87
2022/04/08 02:52:06;;;;;;;3.42;1.38;;;7.00;99.00;;;;;;5069495;28;20623;-87
2022/04/08 02:54:32;;;;;;;5.28;1.70;;;8.00;99.90;;;;;;5069855;28;20208;-87
2022/04/08 02:56:59;;;;;;;1.20;1.05;;;7.30;89.90;;;;;;5069737;28;20292;-87
2022/04/08 02:59:26;;;;;;;2.17;1.40;;;7.30;95.90;;;;;;5069666;28;20737;-87
2022/04/08 03:01:53;;;;;;;2.67;1.52;;;;;;;;;;5068956;28;20732;-87
2022/04/08 03:04:20;;;;;;;3.40;1.88;;;7.30;99.20;;;;;;5061611;28;20233;-86
2022/04/08 03:06:47;;;;;;;1.38;1.00;;;7.20;99.30;;;;;;5069164;28;20306;-87
2022/04/08 03:09:15;;;;;;;1.90;1.08;;;7.40;88.40;;;;;;5069343;28;20273;-88
2022/04/08 03:11:42;;;;;;;3.42;1.17;;;7.30;98.70;;;;;;5069065;28;20722;-87
2022/04/08 03:14:09;;;;;;;7.70;1.70;;;7.40;86.80;;;;;;5068829;28;20207;-87
2022/04/08 03:16:36;;;;;;;1.42;1.10;;;7.40;88.10;;;;;;5069548;28;20195;-88
2022/04/08 03:19:03;;;;;;;2.13;1.25;;;6.90;98.20;;;;;;5069304;28;20263;-87
2022/04/08 03:21:30;;;;;;;2.55;1.70;;;7.30;94.80;;;;;;5069247;28;20191;-87
2022/04/08 03:23:58;;;;;;;2.22;1.20;;;;;;;;;;5069628;28;20211;-87
2022/04/08 03:26:26;;;;;;;1.83;1.00;;;5.90;83.60;;;;;;5068261;28;20737;-87
2022/04/08 03:28:53;;;;;;;3.08;0.95;;;7.60;99.30;;;;;;5068832;28;20536;-87
2022/04/08 03:31:20;;;;;;;4.60;1.73;;;7.30;96.50;;;;;;5069171;28;20264;-86
2022/04/08 03:33:46;;;;;;;1.85;1.50;;;7.20;90.00;;;;;;5067224;28;20204;-87
2022/04/08 03:36:14;;;;;;;1.63;1.10;;;;;;;;;;5068195;28;20232;-88
2022/04/08 03:38:40;;;;;;;2.65;1.50;;;7.10;91.10;;;;;;5069723;28;20205;-87
2022/04/08 03:41:07;;;;;;;2.25;1.10;;;7.00;94.70;;;;;;5066894;28;20219;-87
2022/04/08 03:43:36;;;;;;;4.32;1.40;;;7.00;94.40;;;;;;5070919;28;20211;-87
2022/04/08 03:46:03;;;;;;;3.22;1.02;;;7.10;83.70;;;;;;5065852;28;20541;-87
2022/04/08 03:48:30;;;;;;;2.03;1.00;;;7.10;98.20;;;;;;5060233;28;20204;-89
2022/04/08 03:50:58;;;;;;;1.20;0.98;;;;;;;;;;5058496;28;20215;-89
2022/04/08 03:53:25;;;;;;;0.95;0.90;;;7.20;94.80;;;;;;5062835;28;20203;-88
2022/04/08 03:55:52;;;;;;;1.67;1.20;;;7.20;94.90;;;;;;5062119;28;20291;-88
2022/04/08 03:58:19;;;;;;;2.15;1.80;;;;;;;;;;5057124;28;20614;-85
2022/04/08 04:00:47;;;;;;;4.28;2.17;;;7.30;94.50;;;;;;5067740;28;20757;-85
2022/04/08 04:03:14;;;;;;;3.10;1.00;;;7.20;99.90;;;;;;5058492;28;20887;-86
2022/04/08 04:05:43;;;;;;;4.35;2.00;;;;;;;;;;5047736;28;20288;-86
2022/04/08 04:08:15;;;;;;;3.40;1.08;;;7.00;88.20;;;;;;5058739;28;20264;-85
2022/04/08 04:10:42;;;;;;;3.20;1.20;;;7.20;91.90;;;;;;5067720;28;20534;-86
2022/04/08 04:13:08;;;;;;;1.42;0.90;;;7.00;88.50;;;;;;5066848;28;20196;-84
2022/04/08 04:15:36;;;;;;;6.10;1.70;;;;;;;;;;5066610;28;20589;-84
2022/04/08 04:18:04;;;;;;;2.05;1.13;;;7.30;94.60;;;;;;5067826;28;20297;-84
2022/04/08 04:20:31;;;;;;;2.95;1.50;;;;;;;;;;5067341;28;20863;-84
2022/04/08 04:22:58;;;;;;;6.28;2.03;;;7.30;98.90;;;;;;5067070;28;20310;-85
2022/04/08 04:25:26;;;;;;;3.13;1.38;;;;;;;;;;5066782;28;20223;-85
2022/04/08 04:27:53;;;;;;;2.75;1.02;;;6.90;85.60;;;;;;5067987;28;20209;-84
2022/04/08 04:30:20;;;;;;;5.65;1.20;;;;;;;;;;5067754;28;20251;-85
2022/04/08 04:32:46;;;;;;;1.88;1.30;;;6.90;94.60;;;;;;5067719;28;20195;-84
2022/04/08 04:35:15;;;;;;;3.00;1.10;;;7.10;83.00;;;;;;5067276;28;20219;-85
2022/04/08 04:37:42;;;;;;;5.88;1.20;;;;;;;;;;5067869;28;20696;-85
2022/04/08 04:40:10;;;;;;;2.08;1.40;;;7.10;91.40;;;;;;5064210;28;20203;-85
2022/04/08 04:42:37;;;;;;;1.38;1.27;;;;;;;;;;5048674;28;20287;-85
2022/04/08 04:45:05;;;;;;;2.53;1.20;;;7.00;99.20;;;;;;5048283;28;20623;-84
2022/04/08 04:47:32;;;;;;;9.68;1.40;;;;;;;;;;5048410;28;20891;-84
2022/04/08 04:49:59;;;;;;;2.65;1.48;;;7.50;94.80;;;;;;5048012;28;20227;-84
2022/04/08 04:52:27;;;;;;;1.90;1.27;;;7.10;84.40;;;;;;5048387;28;20216;-84
2022/04/08 04:54:56;;;;;;;6.57;2.03;;;;;;;;;;5048480;28;20269;-84
2022/04/08 04:57:23;;;;;;;4.93;1.73;;;7.30;96.80;;;;;;5048392;28;20211;-84
2022/04/08 04:59:51;;;;;;;2.97;1.38;;;;;;;;;;5048830;28;20226;-84
2022/04/08 05:02:17;;;;;;;3.47;1.50;;;7.00;96.60;;;;;;5052385;28;20293;-84
2022/04/08 05:04:44;;;;;;;3.70;1.65;;;;;;;;;;5064527;28;20291;-84
2022/04/08 05:07:11;;;;;;;3.38;1.65;;;7.30;96.00;;;;;;5073222;28;20230;-85
2022/04/08 05:09:41;;;;;;;3.53;1.48;;;7.10;84.20;;;;;;5072467;28;20207;-84
2022/04/08 05:12:09;;;;;;;2.00;1.50;;;7.80;98.10;;;;;;5072051;28;20207;-84
2022/04/08 05:14:36;;;;;;;7.13;1.50;;;7.20;94.90;;;;;;5071678;28;20212;-84
2022/04/08 05:17:04;;;;;;;2.45;1.50;;;7.00;99.10;;;;;;5071665;28;20872;-84
2022/04/08 05:19:31;;;;;;;4.38;1.58;;;;;;;;;;5072141;28;20941;-84
2022/04/08 05:21:58;;;;;;;2.65;1.30;;;7.40;90.00;;;;;;5071975;28;20217;-84
2022/04/08 05:24:25;;;;;;;2.70;1.40;;;7.20;86.70;;;;;;5071586;28;20202;-84
2022/04/08 05:26:53;;;;;;;3.35;1.45;;;7.20;86.60;;;;;;5071592;28;20265;-84
2022/04/08 05:29:20;;;;;;;2.53;1.25;;;7.40;97.80;;;;;;5071314;28;20729;-84
2022/04/08 05:31:47;;;;;;;2.13;1.27;;;7.30;86.90;;;;;;5071413;28;20232;-84
2022/04/08 05:34:14;;;;;;;5.07;1.83;;;7.80;98.00;;;;;;5071387;28;20277;-84
2022/04/08 05:36:41;;;;;;;8.25;1.92;;;7.30;86.60;;;;;;5071622;28;20201;-84
2022/04/08 05:39:08;;;;;;;3.13;1.52;;;7.40;88.30;;;;;;5071259;28;20266;-84
2022/04/08 05:41:35;;;;;;;1.58;1.00;;;7.30;90.00;;;;;;5071610;28;20200;-84
2022/04/08 05:44:03;;;;;;;6.53;1.67;;;7.30;89.90;;;;;;5071414;28;20215;-84
2022/04/08 05:46:30;;;;;;;3.97;1.83;;;7.40;88.30;;;;;;5071329;28;20224;-84
2022/04/08 05:48:57;;;;;;;4.10;1.70;;;7.50;98.70;;;;;;5071331;28;20290;-84
2022/04/08 05:51:23;;;;;;;4.88;1.38;;;7.40;88.90;;;;;;5071258;28;20511;-84
2022/04/08 05:53:50;;;;;;;4.47;1.90;;;7.40;86.90;;;;;;5071436;28;20237;-84
2022/04/08 05:56:17;;;;;;;1.35;1.25;;;7.40;86.10;;;;;;5071236;28;20275;-84
2022/04/08 05:58:44;;;;;;;1.75;1.48;;;7.50;89.30;;;;;;5070919;28;20213;-84
2022/04/08 06:01:12;;;;;;;4.45;1.60;;;7.40;88.30;;;;;;5070899;28;20209;-84
2022/04/08 06:03:39;;;;;;;2.25;1.33;;;7.40;87.00;;;;;;5071147;28;20843;-84
2022/04/08 06:06:06;;;;;;;1.85;1.00;;;7.40;89.30;;;;;;5070941;28;20221;-84
2022/04/08 06:08:33;;;;;;;6.18;2.55;;;7.50;90.90;;;;;;5071253;28;20294;-84
2022/04/08 06:11:00;;;;;;;3.58;2.30;;;7.60;90.90;;;;;;5070661;28;20219;-84
2022/04/08 06:13:27;;;;;;;3.63;1.70;;;7.40;91.50;;;;;;5069544;28;20742;-85
2022/04/08 06:15:55;;;;;;;3.17;1.23;;;7.20;99.90;;;;;;5071001;28;20304;-86
2022/04/08 06:18:23;;;;;;;1.48;1.20;;;7.30;92.90;;;;;;5071014;28;20766;-86
2022/04/08 06:20:50;;;;;;;1.42;1.33;;;7.10;99.90;;;;;;5070768;28;20201;-86
2022/04/08 06:23:17;;;;;;;6.72;2.15;;;7.30;94.50;;;;;;5070901;28;20297;-85
2022/04/08 06:25:44;;;;;;;3.22;1.45;;;7.50;99.90;;;;;;5059678;28;20253;-86
2022/04/08 06:28:11;;;;;;;2.45;0.95;;;7.40;95.20;;;;;;5065402;28;20334;-85
2022/04/08 06:30:40;;;;;;;0.88;0.80;;;7.30;99.90;;;;;;5069337;28;20304;-85
2022/04/08 06:33:09;;;;;;;1.20;1.10;;;7.20;96.20;;;;;;5068271;28;20223;-85
2022/04/08 06:35:37;;;;;;;3.63;1.15;;;7.50;99.90;;;;;;5068795;28;20256;-87
2022/04/08 06:38:05;;;;;;;1.45;0.82;;;7.10;97.30;;;;;;5068589;28;20217;-86
2022/04/08 06:40:35;;;;;;;5.47;0.77;;;7.20;99.90;;;;;;5068659;28;20266;-86
2022/04/08 06:43:02;;;;;;;4.32;1.30;;;7.10;95.60;;;;;;5068616;28;20204;-85
2022/04/08 06:45:29;;;;;;;3.35;1.55;;;;;;;;;;5068712;28;20234;-86
2022/04/08 06:47:56;;;;;;;3.17;1.55;;;7.10;99.90;;;;;;5070506;28;20242;-86
2022/04/08 06:50:25;;;;;;;1.73;0.93;;;7.10;97.00;;;;;;5070106;28;20309;-85
2022/04/08 06:52:59;;;;;;;1.63;1.23;;;6.70;99.90;;;;;;5069976;28;20195;-85
2022/04/08 06:55:26;;;;;;;5.97;1.10;;;;;;;;;;5070245;28;20208;-86
2022/04/08 06:57:53;;;;;;;5.50;2.15;;;;;;;;;;5070297;28;20204;-86
2022/04/08 07:00:22;;;;;;;5.13;2.78;;;6.80;99.90;;;;;;5070014;28;20195;-85
2022/04/08 07:02:49;;;;;;;3.58;1.48;;;7.10;99.90;;;;;;5069915;28;20238;-86
2022/04/08 07:05:16;;;;;;;2.38;1.25;;;6.80;99.90;;;;;;5069336;28;20279;-86
2022/04/08 07:07:45;;;;;;;1.25;1.02;;;7.20;99.90;;;;;;5069957;28;20320;-85
2022/04/08 07:10:13;;;;;;;2.25;1.40;;;7.00;99.90;;;;;;5070048;28;20603;-85
2022/04/08 07:12:40;;;;;;;3.83;1.15;;;6.90;99.90;;;;;;5069542;28;20667;-85
2022/04/08 07:15:08;;;;;;;4.20;1.38;;;7.10;99.90;;;;;;5069820;28;20282;-86
2022/04/08 07:17:36;;;;;;;1.10;1.10;;;6.80;99.90;;;;;;5069878;28;20290;-86
2022/04/08 07:20:04;;;;;;;1.92;1.15;;;7.20;99.90;;;;;;5069969;28;20292;-86
2022/04/08 07:22:31;;;;;;;1.83;1.50;;;;;;;;;;5069881;28;20213;-86
2022/04/08 07:24:59;;;;;;;2.22;1.25;;;6.80;99.90;;;;;;5069617;28;20238;-86
2022/04/08 07:27:27;;;;;;;1.50;1.23;;;7.00;99.90;;;;;;5069593;28;20227;-86
2022/04/08 07:29:54;;;;;;;2.20;1.08;;;6.70;99.90;;;;;;5069692;28;20207;-86
2022/04/08 07:32:21;;;;;;;1.05;0.95;;;6.90;99.90;;;;;;5069037;28;20258;-86
2022/04/08 07:34:50;;;;;;;1.77;1.00;;;6.70;99.90;;;;;;5069744;28;20214;-87
2022/04/08 07:37:27;;;;;;;3.08;1.48;;;7.40;99.90;;;;;;5069681;28;20203;-86
2022/04/08 07:39:54;;;;;;;1.60;1.50;;;;;;;;;;5066928;28;20207;-86
2022/04/08 07:42:21;;;;;;;5.07;1.85;;;6.60;99.90;;;;;;5049153;28;20717;-86
2022/04/08 07:44:50;;;;;;;4.18;1.40;;;7.00;99.90;;;;;;5049455;28;20215;-86
2022/04/08 07:47:18;;;;;;;3.47;1.45;;;7.20;99.90;;;;;;5049571;28;20265;-86
2022/04/08 07:49:45;;;;;;;2.40;1.15;;;7.20;99.90;;;;;;5049365;28;20216;-86
2022/04/08 07:52:12;;;;;;;6.55;1.83;;;7.30;99.90;;;;;;5049374;28;20234;-86
2022/04/08 07:54:39;;;;;;;5.32;1.50;;;7.20;99.90;;;;;;5049266;28;20204;-87
2022/04/08 07:57:05;;;;;;;2.67;1.25;;;7.10;99.90;;;;;;5049474;28;20299;-86
2022/04/08 07:59:32;;;;;;;1.90;1.15;;;7.10;99.90;;;;;;5048967;28;20258;-86
2022/04/08 08:02:01;;;;;;;2.38;1.40;;;7.40;99.90;;;;;;5049260;28;20204;-86
2022/04/08 08:04:27;;;;;;;2.22;1.42;;;7.40;99.90;;;;;;5058230;28;20223;-86
2022/04/08 08:06:54;;;;;;;1.35;1.25;;;7.30;99.90;;;;;;5069114;28;20305;-86
2022/04/08 08:09:21;;;;;;;2.50;0.85;;;7.40;99.90;;;;;;5069445;28;20610;-86
2022/04/08 08:11:48;;;;;;;1.33;1.20;;;7.70;99.90;;;;;;5069329;28;20254;-85
2022/04/08 08:14:16;;;;;;;4.72;1.73;;;;;;;;;;5069872;28;20207;-86
2022/04/08 08:16:43;;;;;;;1.67;1.30;;;;;;;;;;5069861;28;20373;-86
2022/04/08 08:19:11;;;;;;;1.05;1.05;;;7.20;99.90;;;;;;5069214;28;20223;-86
2022/04/08 08:21:39;;;;;;;2.08;1.27;;;7.60;99.90;;;;;;5068812;28;20203;-86
2022/04/08 08:24:06;;;;;;;2.78;1.25;;;6.80;99.90;;;;;;5068578;28;20747;-85
2022/04/08 08:26:33;;;;;;;5.15;1.27;;;7.50;99.90;;;;;;5068174;28;20232;-86
2022/04/08 08:29:00;;;;;;;3.30;1.25;;;;;;;;;;5068652;28;20210;-86
2022/04/08 08:31:27;;;;;;;2.28;1.92;;;7.60;99.90;;;;;;5068427;28;20286;-86
2022/04/08 08:33:54;;;;;;;1.15;1.05;;;7.80;99.90;;;;;;5067937;28;20216;-86
2022/04/08 08:36:23;;;;;;;2.42;1.20;;;7.40;99.90;;;;;;5068009;28;20209;-85
2022/04/08 08:38:51;;;;;;;1.10;0.88;;;7.80;99.90;;;;;;5068265;28;20203;-86
2022/04/08 08:41:19;;;;;;;1.15;1.05;;;7.80;99.90;;;;;;5068020;28;20671;-86
2022/04/08 08:43:47;;;;;;;1.20;1.00;;;7.50;99.90;;;;;;5068280;28;20213;-86
2022/04/08 08:46:15;;;;;;;1.42;0.95;;;7.60;99.90;;;;;;5068276;28;20207;-86
2022/04/08 08:48:44;;;;;;;1.30;1.20;;;8.00;99.90;;;;;;5068300;28;20213;-85
2022/04/08 08:51:12;;;;;;;1.90;0.80;;;8.00;99.90;;;;;;5068290;28;20315;-86
2022/04/08 08:53:42;;;;;;;1.88;1.45;;;8.00;99.90;;;;;;5067858;28;20679;-86
2022/04/08 08:56:09;;;;;;;0.95;0.75;;;8.00;99.90;;;;;;5067935;28;20214;-85
2022/04/08 08:58:36;;;;;;;1.95;1.20;;;8.10;99.90;;;;;;5068394;28;20247;-86
2022/04/08 09:01:03;;;;;;;1.27;1.00;;;8.30;99.90;;;;;;5068189;28;20213;-86
2022/04/08 09:03:30;;;;;;;2.33;1.17;;;8.10;99.90;;;;;;5068149;28;20213;-86
2022/04/08 09:06:06;;;;;;;1.83;1.15;;;8.00;99.90;;;;;;5067920;28;20248;-86
2022/04/08 09:08:33;;;;;;;1.00;0.90;;;7.80;99.90;;;;;;5068578;28;20300;-86
2022/04/08 09:11:02;;;;;;;1.02;0.95;;;8.00;99.90;;;;;;5068472;28;20244;-85
2022/04/08 09:13:30;;;;;;;0.75;0.75;;;8.20;99.90;;;;;;5068146;28;20236;-86
2022/04/08 09:15:58;;;;;;;1.45;1.23;;;7.90;99.90;;;;;;5068056;28;20676;-86
2022/04/08 09:18:30;;;;;;;4.97;1.23;;;8.00;99.90;;;;;;5068077;28;20214;-86
2022/04/08 09:20:58;;;;;;;5.20;1.77;;;8.00;99.90;;;;;;5068312;28;20662;-86
2022/04/08 09:23:25;;;;;;;0.50;0.50;;;;;;;;;;5068208;28;20626;-85
2022/04/08 09:26:01;;;;;;;1.35;0.95;;;8.40;99.90;;;;;;5067784;28;20233;-86
2022/04/08 09:28:33;;;;;;;1.83;0.70;;;7.80;99.90;;;;;;5067936;28;20208;-86
2022/04/08 09:31:01;;;;;;;2.75;1.10;;;7.50;99.90;;;;;;5067548;28;20217;-86
2022/04/08 09:33:29;;;;;;;0.90;0.80;;;8.20;99.90;;;;;;5067917;28;20217;-86
2022/04/08 09:35:57;;;;;;;0.73;0.65;;;7.70;99.90;;;;;;5067641;28;20271;-86
2022/04/08 09:38:26;;;;;;;1.85;0.70;;;7.90;99.90;;;;;;5067790;28;20266;-86
2022/04/08 09:41:02;;;;;;;1.20;0.88;;;7.90;99.90;;;;;;5056974;28;20649;-85
2022/04/08 09:43:32;;;;;;;1.98;0.85;;;7.80;99.90;;;;;;5047754;28;20241;-85
2022/04/08 09:46:13;;;;;;;0.73;0.73;;;7.80;99.90;;;;;;5047896;28;20216;-86
2022/04/08 09:48:41;;;;;;;2.17;1.05;;;7.90;99.90;;;;;;5050967;28;20234;-85
2022/04/08 09:51:09;;;;;;;1.85;1.20;;;7.80;99.90;;;;;;5051449;28;20598;-85
2022/04/08 09:53:37;;;;;;;2.10;0.60;;;7.60;99.90;;;;;;5051681;28;20219;-85
2022/04/08 09:56:13;;;;;;;1.65;1.55;;;7.50;99.90;;;;;;5051174;28;20288;-86
2022/04/08 09:58:43;;;;;;;0.80;0.80;;;7.50;99.90;;;;;;5051431;28;20742;-85
2022/04/08 10:01:11;;;;;;;4.63;1.10;;;7.60;99.90;;;;;;5051403;28;20220;-85
2022/04/08 10:03:38;;;;;;;1.17;0.98;;;7.60;99.90;;;;;;5053585;28;20214;-86
2022/04/08 10:06:06;;;;;;;1.80;1.70;;;7.70;99.90;;;;;;5070659;28;20304;-86
2022/04/08 10:08:34;;;;;;;3.17;1.58;;;7.50;99.90;;;;;;5070934;28;20214;-86
2022/04/08 10:11:10;;;;;;;1.25;1.00;;;7.50;99.90;;;;;;5070848;28;20213;-86
2022/04/08 10:13:50;;;;;;;1.02;0.93;;;7.40;99.90;;;;;;5071122;28;20259;-86
2022/04/08 10:16:19;;;;;;;3.60;0.80;;;7.80;99.90;;;;;;5070983;28;20263;-86
2022/04/08 10:18:48;;;;;;;0.80;0.80;;;7.60;99.90;;;;;;5071400;28;20324;-86
2022/04/08 10:21:15;;;;;;;1.23;0.90;;;7.70;99.90;;;;;;5070709;28;20722;-85
2022/04/08 10:23:48;;;;;;;0.85;0.80;;;7.80;99.90;;;;;;5070904;28;20212;-85
2022/04/08 10:26:21;;;;;;;0.73;0.73;;;7.70;99.90;;;;;;5071308;28;20237;-85
2022/04/08 10:28:49;;;;;;;0.82;0.60;;;7.60;99.90;;;;;;5071064;28;20208;-85
2022/04/08 10:31:17;;;;;;;1.58;0.80;;;7.50;99.90;;;;;;5070524;28;20625;-85
2022/04/08 10:33:49;;;;;;;2.05;1.00;;;7.60;99.90;;;;;;5070464;28;20298;-86
2022/04/08 10:36:17;;;;;;;0.63;0.63;;;7.00;99.90;;;;;;5070694;28;20295;-86
2022/04/08 10:38:44;;;;;;;0.80;0.73;;;7.50;99.90;;;;;;5070373;28;20742;-85
2022/04/08 10:41:11;;;;;;;1.70;0.70;;;7.60;99.90;;;;;;5070559;28;20249;-85
2022/04/08 10:43:47;;;;;;;1.30;0.80;;;7.80;99.90;;;;;;5070483;28;20203;-85
2022/04/08 10:46:14;;;;;;;1.75;0.63;;;7.80;99.90;;;;;;5070085;28;20210;-86
2022/04/08 10:48:41;;;;;;;1.35;1.00;;;7.70;99.90;;;;;;5070503;28;20213;-85
2022/04/08 10:51:11;;;;;;;2.33;0.80;;;7.70;99.90;;;;;;5070346;28;20210;-86
2022/04/08 10:53:41;;;;;;;0.70;0.70;;;7.70;99.90;;;;;;5070580;28;20577;-85
2022/04/08 10:56:10;;;;;;;1.13;1.05;;;7.70;99.90;;;;;;5070423;28;20212;-85
2022/04/08 10:58:42;;;;;;;1.20;1.10;;;7.80;99.90;;;;;;5069540;28;20210;-86
2022/04/08 11:01:18;;;;;;;1.33;1.05;;;7.80;99.90;;;;;;5070269;28;20215;-85
2022/04/08 11:03:53;;;;;;;4.00;0.90;;;7.80;99.90;;;;;;5070438;28;20581;-85
2022/04/08 11:06:20;;;;;;;1.13;1.00;;;7.80;99.90;;;;;;5070215;28;20249;-84
2022/04/08 11:08:47;;;;;;;2.22;1.02;;;7.90;99.90;;;;;;5070362;28;20245;-84
2022/04/08 11:11:14;;;;;;;1.15;0.90;;;7.90;99.90;;;;;;5069992;28;20669;-85
2022/04/08 11:13:42;;;;;;;1.20;1.10;;;7.70;99.90;;;;;;5049422;28;20287;-84
2022/04/08 11:16:09;;;;;;;1.65;1.23;;;8.00;99.90;;;;;;5049881;28;20211;-85
2022/04/08 11:18:37;;;;;;;2.35;2.15;;;7.80;99.90;;;;;;5050240;28;20239;-86
2022/04/08 11:21:04;;;;;;;1.30;1.30;;;7.20;99.90;;;;;;5050318;28;20210;-85
2022/04/08 11:23:33;;;;;;;4.55;1.45;;;7.00;99.90;;;;;;5050137;28;20645;-84
2022/04/08 11:26:01;;;;;;;1.75;1.65;;;;;;;;;;5051043;28;20219;-85
2022/04/08 11:28:28;;;;;;;2.58;2.38;;;;;;;;;;5051088;28;20303;-85
2022/04/08 11:30:56;;;;;;;3.08;1.60;;;7.10;99.90;;;;;;5050026;28;20763;-84
2022/04/08 11:33:23;;;;;;;1.42;1.33;;;7.40;99.90;;;;;;5049162;28;20267;-85
2022/04/08 11:35:58;;;;;;;1.85;1.52;;;7.30;99.90;;;;;;5048292;28;20254;-86
2022/04/08 11:38:26;;;;;;;1.70;1.60;;;7.30;99.90;;;;;;5049061;28;20215;-85
2022/04/08 11:40:53;;;;;;;1.40;1.30;;;7.30;99.90;;;;;;5060123;28;20239;-85
2022/04/08 11:43:21;;;;;;;4.30;1.95;;;7.40;99.90;;;;;;5069089;28;20260;-85
2022/04/08 11:45:49;;;;;;;11.05;2.30;;;7.30;99.90;;;;;;5069367;28;20220;-85
2022/04/08 11:48:19;;;;;;;2.22;1.67;;;7.40;99.90;;;;;;5069266;28;20306;-85
2022/04/08 11:50:46;;;;;;;1.65;1.55;;;7.50;99.90;;;;;;5068686;28;20615;-85
2022/04/08 11:53:19;;;;;;;2.20;2.00;;;7.60;99.90;;;;;;5068723;28;20274;-85
2022/04/08 11:55:53;;;;;;;5.03;2.05;;;7.80;99.90;;;;;;5069087;28;20209;-85
2022/04/08 11:58:20;;;;;;;3.20;1.60;;;7.50;99.90;;;;;;5068902;28;20276;-86
2022/04/08 12:00:48;;;;;;;2.10;2.00;;;7.70;99.90;;;;;;5068991;28;20247;-85
2022/04/08 12:03:21;;;;;;;1.98;1.77;;;7.60;99.90;;;;;;5069148;28;20204;-85
2022/04/08 12:05:48;;;;;;;1.65;1.55;;;7.50;99.90;;;;;;5049205;28;20295;-85
2022/04/08 12:08:15;;;;;;;1.40;1.30;;;;;;;;;;5048856;28;20229;-85
2022/04/08 12:10:44;;;;;;;3.00;1.02;;;7.50;99.90;;;;;;5048218;28;20635;-85
2022/04/08 12:13:15;;;;;;;2.15;1.08;;;7.70;99.90;;;;;;5048455;28;20222;-85
2022/04/08 12:15:44;;;;;;;1.60;1.50;;;7.40;99.90;;;;;;5048622;28;20671;-85
2022/04/08 12:18:12;;;;;;;2.60;1.30;;;7.80;99.90;;;;;;5048609;28;20676;-86
2022/04/08 12:20:40;;;;;;;2.22;2.03;;;7.20;99.90;;;;;;5048739;28;20241;-85
2022/04/08 12:23:10;;;;;;;6.70;1.90;;;7.40;99.90;;;;;;5048945;28;20287;-85
2022/04/08 12:25:38;;;;;;;2.28;1.92;;;7.30;99.90;;;;;;5048073;28;20205;-85
2022/04/08 12:28:12;;;;;;;2.70;2.30;;;7.40;99.90;;;;;;5048331;28;20210;-85
2022/04/08 12:30:40;;;;;;;2.00;1.90;;;7.40;99.90;;;;;;5048620;28;20282;-85
2022/04/08 12:33:07;;;;;;;1.92;1.65;;;7.10;99.90;;;;;;5048439;28;20232;-85
2022/04/08 12:35:34;;;;;;;2.20;2.00;;;7.30;99.90;;;;;;5048200;28;20217;-85
2022/04/08 12:38:04;;;;;;;2.72;2.22;;;7.70;99.90;;;;;;5048296;28;20255;-85
2022/04/08 12:40:31;;;;;;;4.80;2.50;;;7.20;99.90;;;;;;5055680;28;20199;-86
2022/04/08 12:43:00;;;;;;;2.83;2.63;;;;;;;;;;5068087;28;20203;-85
2022/04/08 12:45:29;;;;;;;2.90;2.70;;;7.30;99.90;;;;;;5068238;28;20199;-85
2022/04/08 12:47:56;;;;;;;2.53;2.33;;;;;;;;;;5068336;28;20208;-85
2022/04/08 12:50:23;;;;;;;3.22;2.92;;;7.10;99.90;;;;;;5068192;28;20211;-85
2022/04/08 12:52:50;;;;;;;2.22;2.03;;;6.80;99.90;;;;;;5068164;28;20766;-85
2022/04/08 12:55:18;;;;;;;4.53;3.30;;;7.30;99.90;;;;;;5067299;28;20204;-85
2022/04/08 12:57:47;;;;;;;4.32;3.10;;;7.20;99.90;;;;;;5068398;28;20207;-85
2022/04/08 13:00:16;;;;;;;3.20;2.90;;;7.10;99.90;;;;;;5068406;28;20210;-85
2022/04/08 13:02:45;;;;;;;3.58;3.03;;;7.20;99.90;;;;;;5068126;28;20206;-85
2022/04/08 13:05:13;;;;;;;4.65;3.00;;;7.30;99.90;;;;;;5067336;28;20203;-84
2022/04/08 13:07:40;;;;;;;3.17;2.88;;;8.10;99.90;;;;;;5067833;28;20680;-84
2022/04/08 13:10:09;;;;;;;3.38;3.17;;;7.40;99.90;;;;;;5067936;28;20659;-85
2022/04/08 13:12:36;;;;;;;2.90;2.70;;;7.50;99.90;;;;;;5067874;28;20260;-85
2022/04/08 13:15:05;;;;;;;3.97;3.20;;;7.50;99.90;;;;;;5067776;28;20247;-85